Time;durP1;ratioP1;P1;durP2;ratioP2;P2;SDS_P1;SDS_P2;PMS_P1;PMS_P2;Temp;Humidity;BMP_temperature;BMP_pressure;BME280_temperature;BME280_humidity;BME280_pressure;Samples;Min_cycle;Max_cycle;Signal;HPM_P1;HPM_P2
2023/11/09 00:00:37;;;;;;;8.20;5.27;;;;;;;;;;777445;179;910574;-64
2023/11/09 00:03:04;;;;;;;7.65;4.55;;;;;;;;;;776974;179;921153;-64
2023/11/09 00:05:29;;;;;;;8.68;5.18;;;;;;;;;;773636;179;918472;-64
2023/11/09 00:07:56;;;;;;;7.32;4.68;;;;;;;;;;779864;179;845738;-64
2023/11/09 00:10:22;;;;;;;8.03;5.17;;;;;;;;;;769070;180;918683;-64
2023/11/09 00:12:50;;;;;;;5.77;4.60;;;;;;;;;;780129;179;918475;-66
2023/11/09 00:15:13;;;;;;;7.60;4.70;;;;;;;;;;775297;178;1015081;-65
2023/11/09 00:17:39;;;;;;;10.50;4.90;;;;;;;;;;775868;177;924070;-65
2023/11/09 00:20:07;;;;;;;7.90;5.03;;;;;;;;;;773403;179;914916;-64
2023/11/09 00:22:33;;;;;;;6.43;4.80;;;;;;;;;;776549;178;921250;-64
2023/11/09 00:24:57;;;;;;;8.70;6.20;;;;;;;;;;781666;179;919309;-63
2023/11/09 00:27:23;;;;;;;8.53;5.20;;;;;;;;;;777687;178;925094;-64
2023/11/09 00:29:49;;;;;;;9.90;6.33;;;;;;;;;;778721;178;850392;-62
2023/11/09 00:32:16;;;;;;;9.17;5.47;;;;;;;;;;786286;178;979979;-66
2023/11/09 00:34:41;;;;;;;8.43;5.50;;;;;;;;;;778449;178;918980;-66
2023/11/09 00:37:08;;;;;;;10.00;5.63;;;;;;;;;;776713;178;920117;-66
2023/11/09 00:39:33;;;;;;;9.40;6.63;;;;;;;;;;776581;178;922972;-62
2023/11/09 00:41:59;;;;;;;9.50;5.87;;;;;;;;;;778921;178;919095;-64
2023/11/09 00:44:25;;;;;;;10.33;5.93;;;;;;;;;;773384;179;924945;-61
2023/11/09 00:46:51;;;;;;;9.45;6.00;;;;;;;;;;774368;179;918644;-61
2023/11/09 00:49:16;;;;;;;9.50;7.23;;;;;;;;;;779827;179;919871;-66
2023/11/09 00:51:42;;;;;;;6.63;4.87;;;;;;;;;;777301;179;818303;-66
2023/11/09 00:54:08;;;;;;;7.72;5.07;;;;;;;;;;775477;179;817119;-60
2023/11/09 00:56:34;;;;;;;6.80;3.97;;;;;;;;;;782965;179;917887;-61
2023/11/09 00:59:00;;;;;;;7.10;4.27;;;;;;;;;;779606;179;922028;-61
2023/11/09 01:01:26;;;;;;;10.77;5.63;;;;;;;;;;777181;179;918946;-61
2023/11/09 01:03:52;;;;;;;9.07;4.70;;;;;;;;;;777309;178;920679;-66
2023/11/09 01:06:18;;;;;;;9.93;6.27;;;;;;;;;;777482;179;919466;-66
2023/11/09 01:08:44;;;;;;;9.87;5.70;;;;;;;;;;780660;179;918711;-66
2023/11/09 01:11:10;;;;;;;7.30;6.10;;;;;;;;;;773217;179;919701;-66
2023/11/09 01:13:35;;;;;;;11.07;6.43;;;;;;;;;;782177;179;817839;-66
2023/11/09 01:16:02;;;;;;;8.10;5.67;;;;;;;;;;772577;179;923725;-62
2023/11/09 01:18:29;;;;;;;11.18;5.90;;;;;;;;;;773428;180;918793;-67
2023/11/09 01:20:55;;;;;;;7.30;5.13;;;;;;;;;;781750;179;816435;-61
2023/11/09 01:23:20;;;;;;;7.78;4.62;;;;;;;;;;774563;176;918486;-63
2023/11/09 01:25:47;;;;;;;8.35;5.53;;;;;;;;;;777080;179;915744;-67
2023/11/09 01:28:12;;;;;;;7.97;5.13;;;;;;;;;;777434;179;919328;-63
2023/11/09 01:30:38;;;;;;;7.17;4.70;;;;;;;;;;772172;179;918752;-66
2023/11/09 01:33:04;;;;;;;7.50;4.50;;;;;;;;;;778029;179;920073;-62
2023/11/09 01:35:30;;;;;;;6.87;4.43;;;;;;;;;;773505;179;921362;-66
2023/11/09 01:37:55;;;;;;;8.27;4.80;;;;;;;;;;784591;178;813928;-66
2023/11/09 01:40:23;;;;;;;7.40;4.37;;;;;;;;;;779297;178;922013;-65
2023/11/09 01:42:47;;;;;;;7.33;5.20;;;;;;;;;;776087;178;918595;-65
2023/11/09 01:45:13;;;;;;;8.03;5.73;;;;;;;;;;782609;178;884264;-65
2023/11/09 01:47:39;;;;;;;7.10;4.57;;;;;;;;;;776603;178;940183;-62
2023/11/09 01:50:05;;;;;;;8.93;4.70;;;;;;;;;;780322;178;919579;-66
2023/11/09 01:52:31;;;;;;;7.23;4.50;;;;;;;;;;784206;176;918821;-62
2023/11/09 01:54:57;;;;;;;7.83;4.90;;;;;;;;;;776411;179;918729;-66
2023/11/09 01:57:23;;;;;;;6.10;4.37;;;;;;;;;;777397;177;918526;-66
2023/11/09 01:59:48;;;;;;;7.93;4.77;;;;;;;;;;777686;179;919341;-62
2023/11/09 02:02:14;;;;;;;5.87;4.77;;;;;;;;;;776432;177;922024;-61
2023/11/09 02:04:40;;;;;;;6.40;4.50;;;;;;;;;;779649;178;919971;-65
2023/11/09 02:07:06;;;;;;;8.03;4.90;;;;;;;;;;776031;179;816392;-66
2023/11/09 02:09:32;;;;;;;8.63;4.77;;;;;;;;;;782232;179;820620;-66
2023/11/09 02:11:58;;;;;;;7.75;4.90;;;;;;;;;;772290;179;919117;-60
2023/11/09 02:14:23;;;;;;;7.40;4.30;;;;;;;;;;771169;180;932647;-65
2023/11/09 02:16:49;;;;;;;8.33;5.27;;;;;;;;;;779279;179;914498;-61
2023/11/09 02:19:15;;;;;;;8.57;5.10;;;;;;;;;;771810;179;915684;-60
2023/11/09 02:21:41;;;;;;;9.87;4.60;;;;;;;;;;777501;179;916761;-65
2023/11/09 02:24:09;;;;;;;8.73;5.67;;;;;;;;;;778364;179;916466;-66
2023/11/09 02:26:34;;;;;;;7.90;4.97;;;;;;;;;;774466;180;915690;-66
2023/11/09 02:29:00;;;;;;;6.97;4.43;;;;;;;;;;772092;176;920239;-65
2023/11/09 02:31:26;;;;;;;6.87;5.87;;;;;;;;;;774838;178;921447;-65
2023/11/09 02:33:52;;;;;;;7.45;5.50;;;;;;;;;;778627;179;918787;-61
2023/11/09 02:36:19;;;;;;;8.17;5.33;;;;;;;;;;776652;179;886795;-65
2023/11/09 02:38:44;;;;;;;10.83;6.00;;;;;;;;;;779256;177;916440;-60
2023/11/09 02:41:11;;;;;;;9.50;4.67;;;;;;;;;;780631;179;917515;-60
2023/11/09 02:43:40;;;;;;;6.68;4.72;;;;;;;;;;774859;179;920698;-66
2023/11/09 02:46:02;;;;;;;6.73;4.60;;;;;;;;;;778390;179;922372;-65
2023/11/09 02:48:28;;;;;;;7.10;4.45;;;;;;;;;;783133;176;921510;-60
2023/11/09 02:50:55;;;;;;;8.73;5.27;;;;;;;;;;776277;178;919499;-65
2023/11/09 02:53:20;;;;;;;10.57;5.27;;;;;;;;;;778840;178;815443;-60
2023/11/09 02:55:45;;;;;;;5.43;3.73;;;;;;;;;;778750;178;919208;-65
2023/11/09 02:58:11;;;;;;;4.90;3.97;;;;;;;;;;787219;177;816023;-61
2023/11/09 03:00:37;;;;;;;9.27;4.87;;;;;;;;;;778039;178;921354;-65
2023/11/09 03:03:04;;;;;;;6.97;4.57;;;;;;;;;;776952;179;917847;-65
2023/11/09 03:05:29;;;;;;;8.77;4.83;;;;;;;;;;783255;178;919342;-65
2023/11/09 03:07:55;;;;;;;6.73;4.40;;;;;;;;;;772570;178;917155;-65
2023/11/09 03:10:20;;;;;;;7.90;4.67;;;;;;;;;;779814;179;937150;-64
2023/11/09 03:12:47;;;;;;;7.73;4.53;;;;;;;;;;779551;179;912024;-66
2023/11/09 03:15:12;;;;;;;15.70;4.87;;;;;;;;;;779822;179;919307;-65
2023/11/09 03:17:39;;;;;;;7.40;5.07;;;;;;;;;;773733;179;919198;-60
2023/11/09 03:20:09;;;;;;;6.30;5.07;;;;;;;;;;771166;179;918777;-60
2023/11/09 03:22:31;;;;;;;7.30;5.27;;;;;;;;;;774689;179;918936;-60
2023/11/09 03:24:57;;;;;;;8.77;4.53;;;;;;;;;;778959;179;921061;-65
2023/11/09 03:27:23;;;;;;;5.77;5.00;;;;;;;;;;774088;179;877752;-60
2023/11/09 03:29:49;;;;;;;9.33;5.70;;;;;;;;;;786040;179;909892;-65
2023/11/09 03:32:14;;;;;;;8.40;5.13;;;;;;;;;;777482;178;906198;-65
2023/11/09 03:34:40;;;;;;;6.43;5.20;;;;;;;;;;775366;179;919264;-60
2023/11/09 03:37:06;;;;;;;8.63;5.27;;;;;;;;;;780356;179;918756;-65
2023/11/09 03:39:33;;;;;;;7.93;3.97;;;;;;;;;;770070;180;915962;-65
2023/11/09 03:41:59;;;;;;;8.00;4.20;;;;;;;;;;773922;176;919451;-60
2023/11/09 03:44:26;;;;;;;4.90;3.20;;;;;;;;;;775228;178;901509;-62
2023/11/09 03:46:51;;;;;;;7.60;4.63;;;;;;;;;;777698;180;919090;-66
2023/11/09 03:49:16;;;;;;;6.47;4.20;;;;;;;;;;774003;178;918551;-61
2023/11/09 03:51:42;;;;;;;12.20;4.63;;;;;;;;;;779479;178;918350;-66
2023/11/09 03:54:08;;;;;;;8.20;4.23;;;;;;;;;;776113;179;920671;-60
2023/11/09 03:56:35;;;;;;;7.57;4.30;;;;;;;;;;774139;179;917299;-61
2023/11/09 03:59:00;;;;;;;7.60;4.23;;;;;;;;;;778001;176;918913;-65
2023/11/09 04:01:25;;;;;;;6.37;3.90;;;;;;;;;;784203;178;918753;-61
2023/11/09 04:03:51;;;;;;;5.87;3.80;;;;;;;;;;774410;178;940133;-66
2023/11/09 04:06:17;;;;;;;5.47;4.23;;;;;;;;;;777952;178;918895;-60
2023/11/09 04:08:44;;;;;;;6.37;4.15;;;;;;;;;;784850;178;919556;-60
2023/11/09 04:11:10;;;;;;;6.87;3.77;;;;;;;;;;776932;178;919353;-60
2023/11/09 04:13:35;;;;;;;4.80;3.43;;;;;;;;;;780973;176;917809;-65
2023/11/09 04:16:02;;;;;;;6.87;3.70;;;;;;;;;;778309;178;919650;-65
2023/11/09 04:18:27;;;;;;;5.53;4.70;;;;;;;;;;785161;178;916024;-65
2023/11/09 04:20:53;;;;;;;6.83;4.67;;;;;;;;;;776412;179;914718;-61
2023/11/09 04:23:19;;;;;;;7.57;5.23;;;;;;;;;;777843;177;919056;-65
2023/11/09 04:25:45;;;;;;;6.90;4.20;;;;;;;;;;779711;179;919413;-60
2023/11/09 04:28:11;;;;;;;6.33;3.73;;;;;;;;;;778627;178;918880;-60
2023/11/09 04:30:36;;;;;;;20.53;3.90;;;;;;;;;;780027;179;815687;-60
2023/11/09 04:33:09;;;;;;;5.83;4.03;;;;;;;;;;780690;179;918486;-65
2023/11/09 04:35:30;;;;;;;8.43;4.73;;;;;;;;;;774451;179;893882;-65
2023/11/09 04:37:54;;;;;;;8.37;4.90;;;;;;;;;;774509;179;921128;-60
2023/11/09 04:40:24;;;;;;;6.93;4.18;;;;;;;;;;780520;179;920898;-64
2023/11/09 04:42:46;;;;;;;10.13;4.80;;;;;;;;;;772654;180;817097;-60
2023/11/09 04:45:12;;;;;;;10.90;4.20;;;;;;;;;;781217;179;825311;-59
2023/11/09 04:47:41;;;;;;;10.13;6.67;;;;;;;;;;777273;180;981898;-60
2023/11/09 04:50:13;;;;;;;6.90;5.10;;;;;;;;;;778424;179;919643;-61
2023/11/09 04:52:33;;;;;;;7.25;4.70;;;;;;;;;;776550;179;917416;-61
2023/11/09 04:55:12;;;;;;;14.47;7.97;;;;;;;;;;778756;179;920530;-67
2023/11/09 05:07:33;;;;;;;6.57;3.23;;;;;;;;;;779170;178;861623;-61
2023/11/09 05:10:00;;;;;;;10.10;5.00;;;;;;;;;;782123;179;918174;-61
2023/11/09 05:12:25;;;;;;;7.35;3.70;;;;;;;;;;777349;177;919275;-62
2023/11/09 05:14:52;;;;;;;5.80;4.10;;;;;;;;;;777749;178;878197;-61
2023/11/09 05:17:19;;;;;;;8.80;3.87;;;;;;;;;;778994;178;915337;-67
2023/11/09 05:19:44;;;;;;;9.03;4.67;;;;;;;;;;775794;178;915010;-67
2023/11/09 05:22:10;;;;;;;30.43;5.83;;;;;;;;;;777663;177;919698;-67
2023/11/09 05:24:35;;;;;;;51.83;8.43;;;;;;;;;;777689;178;916789;-61
2023/11/09 05:27:02;;;;;;;15.87;5.80;;;;;;;;;;776849;178;918376;-67
2023/11/09 05:29:27;;;;;;;13.20;4.80;;;;;;;;;;779171;178;917386;-66
2023/11/09 05:31:54;;;;;;;14.77;5.00;;;;;;;;;;773854;179;844602;-67
2023/11/09 05:34:19;;;;;;;13.87;5.00;;;;;;;;;;779710;179;912583;-62
2023/11/09 05:36:45;;;;;;;18.10;5.50;;;;;;;;;;775013;179;920259;-61
2023/11/09 05:39:12;;;;;;;28.10;6.50;;;;;;;;;;779811;178;824101;-67
2023/11/09 05:41:37;;;;;;;12.67;5.13;;;;;;;;;;785417;179;640656;-67
2023/11/09 05:44:03;;;;;;;16.20;6.57;;;;;;;;;;779181;177;624330;-61
2023/11/09 05:46:28;;;;;;;13.33;6.63;;;;;;;;;;776947;179;916035;-61
2023/11/09 05:48:54;;;;;;;16.57;7.00;;;;;;;;;;779741;175;675580;-61
2023/11/09 05:51:23;;;;;;;15.80;5.10;;;;;;;;;;780432;180;620376;-67
2023/11/09 05:53:48;;;;;;;10.97;5.63;;;;;;;;;;782539;178;631624;-61
2023/11/09 05:56:13;;;;;;;15.20;6.90;;;;;;;;;;779582;179;632719;-60
2023/11/09 05:58:38;;;;;;;10.83;6.03;;;;;;;;;;782933;179;630607;-61
2023/11/09 06:01:04;;;;;;;10.80;5.70;;;;;;;;;;781454;179;628227;-66
2023/11/09 06:03:30;;;;;;;12.40;5.97;;;;;;;;;;776280;179;920074;-66
2023/11/09 06:05:56;;;;;;;9.80;4.93;;;;;;;;;;780586;179;634687;-61
2023/11/09 06:08:22;;;;;;;10.60;5.30;;;;;;;;;;773749;179;923806;-66
2023/11/09 06:10:49;;;;;;;12.10;4.50;;;;;;;;;;773932;179;913804;-60
2023/11/09 06:13:14;;;;;;;9.90;6.35;;;;;;;;;;780566;178;914036;-65
2023/11/09 06:15:41;;;;;;;10.40;5.30;;;;;;;;;;777446;179;1014487;-60
2023/11/09 06:18:06;;;;;;;9.97;5.50;;;;;;;;;;777946;179;919449;-66
2023/11/09 06:20:32;;;;;;;17.87;6.00;;;;;;;;;;777854;179;924630;-66
2023/11/09 06:22:58;;;;;;;18.70;5.57;;;;;;;;;;782461;179;916076;-66
2023/11/09 06:25:23;;;;;;;15.13;5.80;;;;;;;;;;781643;178;899770;-66
2023/11/09 06:27:49;;;;;;;12.20;6.50;;;;;;;;;;776226;175;918327;-66
2023/11/09 06:30:15;;;;;;;14.90;7.00;;;;;;;;;;782168;178;918978;-60
2023/11/09 06:32:41;;;;;;;13.63;5.47;;;;;;;;;;773199;175;919294;-66
2023/11/09 06:35:13;;;;;;;12.10;6.00;;;;;;;;;;776649;178;921755;-61
2023/11/09 06:37:34;;;;;;;11.80;5.37;;;;;;;;;;778728;177;915131;-61
2023/11/09 06:39:59;;;;;;;9.27;5.90;;;;;;;;;;773528;179;920294;-66
2023/11/09 06:42:25;;;;;;;11.20;5.53;;;;;;;;;;775970;179;919403;-67
2023/11/09 06:44:51;;;;;;;11.95;6.30;;;;;;;;;;777298;179;922449;-61
2023/11/09 06:47:16;;;;;;;12.57;6.10;;;;;;;;;;783057;178;914598;-61
2023/11/09 06:49:42;;;;;;;10.23;5.77;;;;;;;;;;779320;179;912376;-67
2023/11/09 06:52:09;;;;;;;12.17;6.47;;;;;;;;;;770909;178;917745;-61
2023/11/09 06:54:34;;;;;;;8.40;5.47;;;;;;;;;;780762;179;917307;-66
2023/11/09 06:57:00;;;;;;;7.83;4.83;;;;;;;;;;777933;179;914816;-61
2023/11/09 06:59:26;;;;;;;9.20;5.10;;;;;;;;;;775606;179;918964;-67
2023/11/09 07:01:53;;;;;;;10.40;5.40;;;;;;;;;;779572;176;919264;-64
2023/11/09 07:04:17;;;;;;;10.70;5.40;;;;;;;;;;775797;180;919491;-66
2023/11/09 07:06:43;;;;;;;9.03;4.67;;;;;;;;;;770961;179;918469;-64
2023/11/09 07:09:09;;;;;;;7.90;5.12;;;;;;;;;;777916;177;918161;-66
2023/11/09 07:11:35;;;;;;;7.43;5.13;;;;;;;;;;772261;180;918714;-66
2023/11/09 07:14:01;;;;;;;8.13;5.47;;;;;;;;;;779726;178;821328;-67
2023/11/09 07:16:27;;;;;;;7.73;5.00;;;;;;;;;;767876;179;921831;-68
2023/11/09 07:18:53;;;;;;;7.63;5.10;;;;;;;;;;780638;180;919688;-68
2023/11/09 07:21:20;;;;;;;8.83;5.50;;;;;;;;;;773705;179;1123962;-68
2023/11/09 07:23:45;;;;;;;7.90;5.63;;;;;;;;;;779018;177;884713;-68
2023/11/09 07:26:10;;;;;;;9.05;5.53;;;;;;;;;;778450;179;925212;-70
2023/11/09 07:28:36;;;;;;;12.17;6.37;;;;;;;;;;772853;179;919009;-68
2023/11/09 07:31:02;;;;;;;9.40;6.13;;;;;;;;;;776488;179;918316;-67
2023/11/09 07:33:27;;;;;;;10.13;5.97;;;;;;;;;;781778;176;917821;-69
2023/11/09 07:35:54;;;;;;;8.70;5.33;;;;;;;;;;777237;178;919245;-70
2023/11/09 07:38:19;;;;;;;7.80;4.75;;;;;;;;;;779301;178;788393;-70
2023/11/09 07:40:45;;;;;;;9.83;6.50;;;;;;;;;;772743;178;923589;-68
2023/11/09 07:43:11;;;;;;;10.20;6.10;;;;;;;;;;775087;178;941672;-69
2023/11/09 07:45:37;;;;;;;13.70;7.87;;;;;;;;;;782248;178;920807;-68
2023/11/09 07:48:03;;;;;;;11.68;6.85;;;;;;;;;;773637;178;918386;-69
2023/11/09 07:50:30;;;;;;;8.73;5.77;;;;;;;;;;785912;178;916142;-67
2023/11/09 07:52:54;;;;;;;13.03;6.57;;;;;;;;;;777939;179;822165;-67
2023/11/09 07:55:20;;;;;;;11.60;6.97;;;;;;;;;;778806;179;913965;-69
2023/11/09 07:57:47;;;;;;;10.83;5.97;;;;;;;;;;782011;179;908190;-68
2023/11/09 08:00:12;;;;;;;12.80;6.70;;;;;;;;;;776572;178;923293;-67
2023/11/09 08:02:38;;;;;;;10.13;6.13;;;;;;;;;;777242;178;917288;-67
2023/11/09 08:05:04;;;;;;;10.43;5.77;;;;;;;;;;782726;179;921541;-67
2023/11/09 08:07:30;;;;;;;10.18;5.82;;;;;;;;;;772706;180;921522;-67
2023/11/09 08:09:56;;;;;;;8.50;4.30;;;;;;;;;;771109;178;919135;-69
2023/11/09 08:12:23;;;;;;;5.70;4.00;;;;;;;;;;781851;175;629621;-68
2023/11/09 08:14:47;;;;;;;5.63;4.00;;;;;;;;;;777960;179;807945;-69
2023/11/09 08:17:14;;;;;;;6.40;3.50;;;;;;;;;;774168;179;716124;-68
2023/11/09 08:19:39;;;;;;;7.20;3.17;;;;;;;;;;772300;179;1027460;-68
2023/11/09 08:22:05;;;;;;;7.33;3.07;;;;;;;;;;781772;179;887191;-69
2023/11/09 08:24:32;;;;;;;4.23;2.60;;;;;;;;;;776935;179;886731;-68
2023/11/09 08:26:57;;;;;;;5.85;3.10;;;;;;;;;;775151;179;917109;-69
2023/11/09 08:29:24;;;;;;;5.90;3.37;;;;;;;;;;776662;179;918697;-70
2023/11/09 08:31:48;;;;;;;6.10;3.27;;;;;;;;;;772798;180;919003;-70
2023/11/09 08:34:16;;;;;;;4.53;3.30;;;;;;;;;;770325;179;919263;-67
2023/11/09 08:36:40;;;;;;;5.23;2.80;;;;;;;;;;779292;179;920208;-69
2023/11/09 08:39:09;;;;;;;6.50;2.90;;;;;;;;;;778061;179;645998;-69
2023/11/09 08:41:32;;;;;;;4.50;2.53;;;;;;;;;;775259;179;629071;-69
2023/11/09 08:43:58;;;;;;;8.80;3.53;;;;;;;;;;780394;179;816713;-67
2023/11/09 08:46:24;;;;;;;6.10;3.60;;;;;;;;;;790095;178;624292;-69
2023/11/09 08:48:49;;;;;;;5.07;3.30;;;;;;;;;;781385;175;947827;-67
2023/11/09 08:51:15;;;;;;;5.40;4.00;;;;;;;;;;777418;178;915681;-66
2023/11/09 08:53:41;;;;;;;6.77;3.30;;;;;;;;;;784048;178;914375;-66
2023/11/09 08:56:07;;;;;;;7.27;3.80;;;;;;;;;;773942;178;915031;-69
2023/11/09 08:58:36;;;;;;;5.60;3.53;;;;;;;;;;780011;178;946489;-66
2023/11/09 09:01:01;;;;;;;5.87;3.50;;;;;;;;;;784514;178;878721;-65
2023/11/09 09:03:24;;;;;;;4.60;3.23;;;;;;;;;;777451;178;952731;-66
2023/11/09 09:05:52;;;;;;;5.50;3.10;;;;;;;;;;773562;179;919124;-69
2023/11/09 09:08:17;;;;;;;5.27;3.33;;;;;;;;;;775369;179;918257;-66
2023/11/09 09:10:43;;;;;;;4.83;2.90;;;;;;;;;;780763;178;918865;-69
2023/11/09 09:13:09;;;;;;;4.70;2.93;;;;;;;;;;777171;178;919609;-67
2023/11/09 09:15:35;;;;;;;5.80;3.87;;;;;;;;;;777409;179;918002;-66
2023/11/09 09:18:00;;;;;;;4.67;3.17;;;;;;;;;;780016;179;913076;-69
2023/11/09 09:20:27;;;;;;;8.43;4.07;;;;;;;;;;777120;179;903260;-67
2023/11/09 09:22:55;;;;;;;4.05;2.67;;;;;;;;;;770782;179;1021363;-69
2023/11/09 09:25:22;;;;;;;7.32;3.37;;;;;;;;;;775508;179;916850;-67
2023/11/09 09:27:46;;;;;;;6.60;3.43;;;;;;;;;;766094;177;915548;-69
2023/11/09 09:30:13;;;;;;;5.50;3.07;;;;;;;;;;779731;179;921271;-67
2023/11/09 09:32:38;;;;;;;8.27;3.15;;;;;;;;;;775622;179;920901;-70
2023/11/09 09:35:06;;;;;;;4.80;2.93;;;;;;;;;;779170;179;915622;-66
2023/11/09 09:37:32;;;;;;;6.43;3.13;;;;;;;;;;777987;179;938211;-66
2023/11/09 09:39:56;;;;;;;5.07;3.25;;;;;;;;;;774595;179;915394;-69
2023/11/09 09:42:24;;;;;;;5.30;3.10;;;;;;;;;;786203;179;643575;-69
2023/11/09 09:44:48;;;;;;;4.47;2.60;;;;;;;;;;777728;179;1020477;-69
2023/11/09 09:47:14;;;;;;;5.00;2.65;;;;;;;;;;777923;179;718216;-66
2023/11/09 09:49:41;;;;;;;5.90;3.10;;;;;;;;;;780549;179;918864;-67
2023/11/09 09:52:07;;;;;;;5.63;3.30;;;;;;;;;;776322;180;817750;-68
2023/11/09 09:54:32;;;;;;;13.93;5.00;;;;;;;;;;771563;179;895591;-70
2023/11/09 09:56:58;;;;;;;4.60;2.90;;;;;;;;;;775565;177;878868;-70
2023/11/09 09:59:23;;;;;;;5.30;3.70;;;;;;;;;;789612;178;819195;-65
2023/11/09 10:01:49;;;;;;;4.60;3.00;;;;;;;;;;776025;178;919676;-67
2023/11/09 10:04:15;;;;;;;4.50;2.67;;;;;;;;;;777141;178;947167;-68
2023/11/09 10:06:41;;;;;;;4.82;3.03;;;;;;;;;;783602;178;848584;-69
2023/11/09 10:09:08;;;;;;;5.67;3.10;;;;;;;;;;777850;178;820910;-66
2023/11/09 10:11:33;;;;;;;5.73;2.97;;;;;;;;;;775211;178;918155;-70
2023/11/09 10:13:58;;;;;;;6.40;3.27;;;;;;;;;;780653;178;921152;-66
2023/11/09 10:16:30;;;;;;;4.28;3.00;;;;;;;;;;772868;179;956516;-66
2023/11/09 10:18:55;;;;;;;5.30;3.33;;;;;;;;;;775836;179;915104;-67
2023/11/09 10:21:21;;;;;;;4.40;2.90;;;;;;;;;;779552;179;815881;-69
2023/11/09 10:23:54;;;;;;;5.00;2.60;;;;;;;;;;781989;179;818224;-68
2023/11/09 10:26:20;;;;;;;3.73;2.63;;;;;;;;;;774718;179;919475;-70
2023/11/09 10:28:47;;;;;;;4.33;2.90;;;;;;;;;;779914;177;919686;-65
2023/11/09 10:31:12;;;;;;;13.47;3.13;;;;;;;;;;779200;179;629413;-69
2023/11/09 10:33:38;;;;;;;5.20;3.70;;;;;;;;;;784748;177;638000;-69
2023/11/09 10:36:04;;;;;;;7.20;3.23;;;;;;;;;;782078;179;624286;-66
2023/11/09 10:38:29;;;;;;;5.20;3.03;;;;;;;;;;780214;179;633268;-66
2023/11/09 10:40:57;;;;;;;5.80;3.37;;;;;;;;;;780997;179;620969;-69
2023/11/09 10:43:21;;;;;;;5.00;3.17;;;;;;;;;;776815;179;921234;-70
2023/11/09 10:45:49;;;;;;;6.63;3.60;;;;;;;;;;774858;179;926058;-64
2023/11/09 10:48:17;;;;;;;7.87;3.70;;;;;;;;;;776592;179;919850;-66
2023/11/09 10:50:47;;;;;;;5.37;3.22;;;;;;;;;;776866;179;942669;-66
2023/11/09 10:53:19;;;;;;;5.93;3.20;;;;;;;;;;776981;179;916671;-65
2023/11/09 10:55:44;;;;;;;4.97;3.40;;;;;;;;;;776285;179;813453;-70
2023/11/09 10:58:12;;;;;;;5.53;3.50;;;;;;;;;;783784;179;920872;-69
2023/11/09 11:00:42;;;;;;;4.63;2.70;;;;;;;;;;776138;179;913148;-66
2023/11/09 11:03:04;;;;;;;6.87;3.10;;;;;;;;;;777366;179;817117;-67
2023/11/09 11:05:29;;;;;;;5.83;3.00;;;;;;;;;;775425;179;916285;-67
2023/11/09 11:07:55;;;;;;;4.43;3.13;;;;;;;;;;781411;178;920561;-67
2023/11/09 11:10:21;;;;;;;5.30;3.10;;;;;;;;;;778924;178;923889;-64
2023/11/09 11:12:47;;;;;;;4.60;3.07;;;;;;;;;;776925;178;919191;-67
2023/11/09 11:15:13;;;;;;;6.27;3.30;;;;;;;;;;779160;178;920348;-68
2023/11/09 11:17:40;;;;;;;10.80;3.90;;;;;;;;;;778021;178;818955;-65
2023/11/09 11:20:17;;;;;;;4.73;3.10;;;;;;;;;;777954;178;918608;-69
2023/11/09 11:22:42;;;;;;;5.60;3.60;;;;;;;;;;778002;178;918995;-69
2023/11/09 11:25:14;;;;;;;6.43;3.70;;;;;;;;;;783590;178;816728;-68
2023/11/09 11:27:41;;;;;;;6.17;3.47;;;;;;;;;;769346;180;815331;-66
2023/11/09 11:30:13;;;;;;;5.23;3.10;;;;;;;;;;773848;178;919468;-69
2023/11/09 11:32:38;;;;;;;5.27;3.50;;;;;;;;;;773852;179;919119;-68
2023/11/09 11:35:04;;;;;;;7.50;3.80;;;;;;;;;;781892;178;1023005;-63
2023/11/09 11:37:30;;;;;;;4.43;3.00;;;;;;;;;;779021;179;918447;-68
2023/11/09 11:39:56;;;;;;;6.13;3.33;;;;;;;;;;777950;179;919418;-68
2023/11/09 11:42:22;;;;;;;8.00;3.23;;;;;;;;;;780279;175;919227;-66
2023/11/09 11:44:52;;;;;;;9.57;3.73;;;;;;;;;;772631;179;926119;-64
2023/11/09 11:47:17;;;;;;;5.20;3.70;;;;;;;;;;775000;179;924600;-68
2023/11/09 11:49:42;;;;;;;5.27;3.73;;;;;;;;;;776762;179;919490;-67
2023/11/09 11:52:09;;;;;;;5.40;3.77;;;;;;;;;;779701;179;819690;-68
2023/11/09 11:54:35;;;;;;;6.20;3.47;;;;;;;;;;777047;179;818644;-65
2023/11/09 11:57:00;;;;;;;5.40;3.30;;;;;;;;;;777217;179;917352;-69
2023/11/09 11:59:28;;;;;;;4.70;3.13;;;;;;;;;;777267;179;897220;-64
2023/11/09 12:01:52;;;;;;;5.47;3.30;;;;;;;;;;775274;179;919843;-64
2023/11/09 12:04:17;;;;;;;5.87;3.57;;;;;;;;;;775386;179;912792;-70
2023/11/09 12:06:44;;;;;;;4.23;2.43;;;;;;;;;;778937;179;919363;-63
2023/11/09 12:09:10;;;;;;;5.00;3.57;;;;;;;;;;776254;179;862875;-68
2023/11/09 12:11:41;;;;;;;5.87;3.53;;;;;;;;;;772815;179;915376;-65
2023/11/09 12:14:08;;;;;;;5.83;3.47;;;;;;;;;;774507;177;815062;-68
2023/11/09 12:16:33;;;;;;;4.70;3.03;;;;;;;;;;779374;179;862045;-69
2023/11/09 12:19:04;;;;;;;5.68;3.30;;;;;;;;;;775257;179;922950;-65
2023/11/09 12:21:27;;;;;;;5.13;3.10;;;;;;;;;;778384;177;911723;-68
2023/11/09 12:23:51;;;;;;;4.63;2.97;;;;;;;;;;785836;177;915883;-66
2023/11/09 12:26:18;;;;;;;7.47;2.97;;;;;;;;;;778351;178;918472;-65
2023/11/09 12:28:43;;;;;;;3.77;2.40;;;;;;;;;;778092;178;919596;-64
2023/11/09 12:31:12;;;;;;;4.40;3.20;;;;;;;;;;778514;178;868201;-68
2023/11/09 12:33:34;;;;;;;5.53;3.50;;;;;;;;;;778223;179;916306;-68
2023/11/09 12:36:02;;;;;;;5.53;3.50;;;;;;;;;;772894;178;919498;-66
2023/11/09 12:38:26;;;;;;;8.03;3.37;;;;;;;;;;777416;178;919835;-64
2023/11/09 12:40:52;;;;;;;4.63;3.47;;;;;;;;;;781391;179;922300;-65
2023/11/09 12:43:18;;;;;;;5.60;3.77;;;;;;;;;;772078;179;919223;-66
2023/11/09 12:45:50;;;;;;;7.93;3.60;;;;;;;;;;775709;179;915162;-66
2023/11/09 12:48:16;;;;;;;5.50;3.17;;;;;;;;;;777632;177;862466;-68
2023/11/09 12:50:41;;;;;;;6.07;4.30;;;;;;;;;;771500;180;818745;-68
2023/11/09 12:53:08;;;;;;;8.53;3.83;;;;;;;;;;779794;178;917821;-66
2023/11/09 12:55:34;;;;;;;7.90;3.10;;;;;;;;;;775116;179;918583;-68
2023/11/09 12:58:00;;;;;;;4.73;2.90;;;;;;;;;;781471;178;847751;-69
2023/11/09 13:00:29;;;;;;;5.07;3.50;;;;;;;;;;782105;178;816048;-67
2023/11/09 13:02:56;;;;;;;5.07;3.33;;;;;;;;;;774936;179;918723;-69
2023/11/09 13:05:18;;;;;;;8.37;3.67;;;;;;;;;;779367;179;919410;-68
2023/11/09 13:07:46;;;;;;;5.23;3.03;;;;;;;;;;775321;179;919101;-65
2023/11/09 13:12:44;;;;;;;5.20;2.93;;;;;;;;;;776943;177;919297;-65
2023/11/09 13:15:13;;;;;;;6.03;3.27;;;;;;;;;;780646;179;919822;-67
2023/11/09 13:17:53;;;;;;;5.00;3.23;;;;;;;;;;779218;178;817343;-69
2023/11/09 13:20:27;;;;;;;6.87;3.27;;;;;;;;;;779556;179;918206;-69
2023/11/09 13:22:43;;;;;;;6.50;3.43;;;;;;;;;;776740;179;918411;-70
2023/11/09 13:25:09;;;;;;;5.53;3.30;;;;;;;;;;781189;179;795625;-69
2023/11/09 13:27:37;;;;;;;5.70;3.13;;;;;;;;;;771898;179;924162;-65
2023/11/09 13:30:02;;;;;;;6.07;3.50;;;;;;;;;;776647;178;918877;-68
2023/11/09 13:32:27;;;;;;;7.73;3.60;;;;;;;;;;775953;178;919094;-66
2023/11/09 13:35:24;;;;;;;4.80;2.80;;;;;;;;;;772997;179;920589;-67
2023/11/09 13:37:32;;;;;;;4.73;3.47;;;;;;;;;;780439;177;920382;-69
2023/11/09 13:42:36;;;;;;;7.57;2.87;;;;;;;;;;776492;178;918831;-67
2023/11/09 13:44:54;;;;;;;7.10;2.60;;;;;;;;;;782886;178;1021570;-66
2023/11/09 13:47:22;;;;;;;5.37;3.30;;;;;;;;;;783970;178;803156;-68
2023/11/09 13:49:46;;;;;;;5.13;3.07;;;;;;;;;;775599;178;817384;-65
2023/11/09 13:52:18;;;;;;;6.93;3.37;;;;;;;;;;780771;179;841458;-69
2023/11/09 13:57:23;;;;;;;4.73;2.90;;;;;;;;;;775083;179;918636;-69
2023/11/09 14:00:10;;;;;;;6.53;2.80;;;;;;;;;;775284;179;916270;-64
2023/11/09 14:02:29;;;;;;;8.90;6.67;;;;;;;;;;770628;179;919738;-66
2023/11/09 14:04:57;;;;;;;9.23;3.43;;;;;;;;;;779480;179;821690;-66
2023/11/09 14:07:20;;;;;;;3.93;2.50;;;;;;;;;;770201;177;917722;-68
2023/11/09 14:09:47;;;;;;;4.85;3.03;;;;;;;;;;777627;178;818546;-68
2023/11/09 14:12:24;;;;;;;6.53;3.50;;;;;;;;;;778683;178;817055;-69
2023/11/09 14:14:40;;;;;;;3.97;2.70;;;;;;;;;;778542;178;920129;-69
2023/11/09 14:17:06;;;;;;;5.80;3.53;;;;;;;;;;775883;179;918218;-69
2023/11/09 14:19:37;;;;;;;3.93;3.20;;;;;;;;;;773956;179;918941;-65
2023/11/09 14:22:04;;;;;;;5.70;3.00;;;;;;;;;;775028;177;920610;-67
2023/11/09 14:24:29;;;;;;;4.67;3.00;;;;;;;;;;770032;180;932591;-68
2023/11/09 14:26:55;;;;;;;4.93;2.80;;;;;;;;;;773637;178;918334;-69
2023/11/09 14:29:23;;;;;;;5.23;3.17;;;;;;;;;;778987;178;917624;-69
2023/11/09 14:31:47;;;;;;;5.23;3.50;;;;;;;;;;785073;178;765879;-68
2023/11/09 14:34:14;;;;;;;5.60;3.07;;;;;;;;;;777240;179;713920;-66
2023/11/09 14:36:44;;;;;;;5.13;3.10;;;;;;;;;;775320;179;919372;-67